Time;durP1;ratioP1;P1;durP2;ratioP2;P2;SDS_P1;SDS_P2;PMS_P1;PMS_P2;Temp;Humidity;BMP_temperature;BMP_pressure;BME280_temperature;BME280_humidity;BME280_pressure;Samples;Min_cycle;Max_cycle;Signal;HPM_P1;HPM_P2
2023/09/11 00:00:11;;;;;;;15.63;11.02;;;21.50;99.90;;;;;;4908566;29;20053;-58
2023/09/11 00:02:37;;;;;;;17.35;10.80;;;21.50;99.90;;;;;;4900594;29;20056;-57
2023/09/11 00:05:05;;;;;;;21.65;12.75;;;21.50;99.90;;;;;;4906414;29;20052;-57
2023/09/11 00:07:32;;;;;;;13.85;10.32;;;21.40;99.90;;;;;;4901154;29;20055;-57
2023/09/11 00:09:58;;;;;;;18.40;10.52;;;21.50;99.90;;;;;;4912535;29;20064;-58
2023/09/11 00:12:25;;;;;;;20.83;11.60;;;21.50;99.90;;;;;;4909858;29;20044;-58
2023/09/11 00:14:52;;;;;;;18.92;11.90;;;21.40;99.90;;;;;;4912866;29;20112;-59
2023/09/11 00:17:19;;;;;;;14.82;11.63;;;21.30;99.90;;;;;;4910270;29;20120;-59
2023/09/11 00:19:46;;;;;;;19.35;12.20;;;21.30;99.90;;;;;;4901712;29;20052;-58
2023/09/11 00:22:13;;;;;;;18.92;12.32;;;21.30;99.90;;;;;;4907717;29;20107;-56
2023/09/11 00:24:40;;;;;;;21.55;15.13;;;21.20;99.90;;;;;;4893031;29;20103;-58
2023/09/11 00:27:06;;;;;;;18.15;13.35;;;21.10;99.90;;;;;;4876108;29;20051;-59
2023/09/11 00:29:33;;;;;;;23.98;14.55;;;21.00;99.90;;;;;;4893037;29;20108;-58
2023/09/11 00:32:00;;;;;;;22.42;14.48;;;21.00;99.90;;;;;;4909912;29;20142;-56
2023/09/11 00:34:29;;;;;;;21.08;14.07;;;21.00;99.90;;;;;;4558052;29;10000257;-56
2023/09/11 00:36:57;;;;;;;29.25;15.07;;;21.00;99.90;;;;;;4885860;29;20053;-58
2023/09/11 00:39:24;;;;;;;21.85;15.13;;;21.00;99.90;;;;;;4907953;29;20052;-57
2023/09/11 00:41:50;;;;;;;20.15;14.95;;;20.90;99.90;;;;;;4903684;29;20052;-57
2023/09/11 00:44:17;;;;;;;22.92;16.08;;;20.90;99.90;;;;;;4908529;29;20047;-57
2023/09/11 00:46:44;;;;;;;24.58;15.77;;;20.90;99.90;;;;;;4907406;29;20056;-57
2023/09/11 00:49:11;;;;;;;20.35;14.55;;;20.80;99.90;;;;;;4892286;29;20503;-57
2023/09/11 00:51:38;;;;;;;19.38;14.20;;;20.80;99.90;;;;;;4887633;29;20071;-57
2023/09/11 00:54:05;;;;;;;19.13;14.27;;;20.70;99.90;;;;;;4894328;29;20075;-55
2023/09/11 00:56:32;;;;;;;25.10;14.80;;;20.70;99.90;;;;;;4905988;29;20480;-57
2023/09/11 00:58:59;;;;;;;19.73;14.80;;;20.70;99.90;;;;;;4906248;29;20055;-57
2023/09/11 01:01:25;;;;;;;31.65;15.15;;;20.60;99.90;;;;;;4907800;29;20052;-58
2023/09/11 01:03:52;;;;;;;21.73;14.93;;;20.50;99.90;;;;;;4872312;29;20059;-57
2023/09/11 01:06:21;;;;;;;22.67;15.93;;;20.50;99.90;;;;;;4906889;29;20108;-58
2023/09/11 01:08:47;;;;;;;24.77;16.88;;;20.60;99.90;;;;;;4906443;29;20108;-59
2023/09/11 01:11:14;;;;;;;27.65;16.50;;;20.60;99.90;;;;;;4888830;29;20383;-58
2023/09/11 01:13:41;;;;;;;26.85;16.90;;;20.60;99.90;;;;;;4897993;29;20049;-57
2023/09/11 01:16:23;;;;;;;25.65;18.60;;;20.60;99.90;;;;;;4882336;29;20104;-58
2023/09/11 01:19:01;;;;;;;23.98;18.67;;;20.60;99.90;;;;;;4883127;29;20109;-58
2023/09/11 01:21:53;;;;;;;31.67;18.98;;;20.60;99.90;;;;;;4896438;29;20418;-58
2023/09/11 01:24:30;;;;;;;26.38;17.40;;;20.50;99.90;;;;;;4899772;29;20100;-58
2023/09/11 01:27:26;;;;;;;27.98;18.17;;;20.40;99.90;;;;;;4892945;29;20063;-60
2023/09/11 01:29:53;;;;;;;24.98;17.50;;;20.40;99.90;;;;;;4867649;29;20044;-57
2023/09/11 01:32:21;;;;;;;30.38;19.20;;;20.40;99.90;;;;;;4884772;29;20147;-58
2023/09/11 01:34:48;;;;;;;27.67;18.25;;;20.30;99.90;;;;;;4892130;29;20039;-57
2023/09/11 01:37:15;;;;;;;34.38;19.95;;;20.20;99.90;;;;;;4905755;29;20567;-58
2023/09/11 01:39:41;;;;;;;26.25;18.85;;;20.20;99.90;;;;;;4906958;29;20051;-59
2023/09/11 01:42:09;;;;;;;29.85;19.13;;;20.20;99.90;;;;;;4905693;29;20099;-61
2023/09/11 01:44:44;;;;;;;32.38;20.60;;;20.10;99.90;;;;;;4890109;29;20052;-58
2023/09/11 01:47:14;;;;;;;31.80;20.35;;;20.10;99.90;;;;;;4886079;29;20465;-57
2023/09/11 01:49:40;;;;;;;37.08;21.95;;;20.10;99.90;;;;;;4908253;29;20044;-60
2023/09/11 01:52:07;;;;;;;28.60;20.45;;;20.00;99.90;;;;;;4902040;29;20096;-58
2023/09/11 01:54:35;;;;;;;30.40;21.30;;;19.90;99.90;;;;;;4890436;29;20051;-57
2023/09/11 01:57:02;;;;;;;36.63;21.98;;;20.10;99.90;;;;;;4885198;29;20056;-59
2023/09/11 01:59:29;;;;;;;29.13;20.85;;;20.10;99.90;;;;;;4884963;29;20048;-55
2023/09/11 02:01:55;;;;;;;30.98;22.13;;;20.20;99.90;;;;;;4887750;29;20061;-57
2023/09/11 02:04:22;;;;;;;32.35;22.85;;;20.10;99.90;;;;;;4907674;29;20484;-58
2023/09/11 02:06:49;;;;;;;33.33;21.05;;;20.10;99.90;;;;;;4909800;29;20452;-59
2023/09/11 02:09:16;;;;;;;30.38;22.38;;;20.20;99.90;;;;;;4893477;29;20464;-57
2023/09/11 02:11:43;;;;;;;30.23;23.00;;;20.10;99.90;;;;;;4901362;29;20052;-57
2023/09/11 02:14:10;;;;;;;32.08;21.92;;;20.00;99.90;;;;;;4902371;29;20056;-56
2023/09/11 02:16:37;;;;;;;35.88;23.73;;;20.10;99.90;;;;;;4908011;29;20248;-58
2023/09/11 02:19:03;;;;;;;37.63;23.23;;;20.10;99.90;;;;;;4889435;29;20108;-58
2023/09/11 02:21:30;;;;;;;33.65;21.83;;;20.10;99.90;;;;;;4882388;29;20051;-57
2023/09/11 02:23:57;;;;;;;32.72;22.40;;;20.20;99.90;;;;;;4911068;29;20045;-59
2023/09/11 02:26:25;;;;;;;36.10;24.27;;;20.10;99.90;;;;;;4908617;29;20103;-57
2023/09/11 02:28:52;;;;;;;35.28;23.58;;;20.00;99.90;;;;;;4904607;29;20060;-59
2023/09/11 02:31:18;;;;;;;31.73;23.27;;;20.10;99.90;;;;;;4905361;29;20044;-59
2023/09/11 02:33:46;;;;;;;29.90;21.77;;;20.10;99.90;;;;;;4907880;29;20044;-56
2023/09/11 02:36:13;;;;;;;33.05;21.90;;;20.20;99.90;;;;;;4908354;29;20044;-57
2023/09/11 02:38:40;;;;;;;33.63;20.50;;;20.10;99.90;;;;;;4905384;29;20499;-56
2023/09/11 02:41:07;;;;;;;31.80;21.58;;;20.10;99.90;;;;;;4907447;29;20115;-56
2023/09/11 02:43:36;;;;;;;34.35;21.77;;;20.10;99.90;;;;;;4905979;29;20104;-60
2023/09/11 02:46:03;;;;;;;30.30;21.55;;;20.10;99.90;;;;;;4905356;29;20052;-58
2023/09/11 02:48:31;;;;;;;30.42;20.45;;;20.10;99.90;;;;;;4909604;29;20492;-57
2023/09/11 02:50:59;;;;;;;34.50;20.52;;;20.10;99.90;;;;;;4902578;29;20115;-58
2023/09/11 02:53:26;;;;;;;36.55;21.55;;;20.20;99.90;;;;;;4903383;29;20052;-57
2023/09/11 02:55:53;;;;;;;35.38;21.48;;;20.00;99.90;;;;;;4912551;29;20507;-58
2023/09/11 02:58:19;;;;;;;38.53;23.25;;;20.10;99.90;;;;;;4886913;29;20298;-59
2023/09/11 03:00:46;;;;;;;38.85;22.15;;;20.10;99.90;;;;;;4913392;29;20496;-59
2023/09/11 03:03:13;;;;;;;33.28;21.55;;;20.10;99.90;;;;;;4900992;29;20049;-58
2023/09/11 03:05:40;;;;;;;32.88;22.30;;;20.00;99.90;;;;;;4913952;29;20052;-59
2023/09/11 03:08:07;;;;;;;40.35;23.77;;;20.00;99.90;;;;;;4909856;29;20053;-57
2023/09/11 03:10:34;;;;;;;37.80;23.13;;;19.90;99.90;;;;;;4903896;29;20139;-58
2023/09/11 03:13:03;;;;;;;36.25;22.83;;;19.80;99.90;;;;;;4892254;29;20052;-59
2023/09/11 03:15:30;;;;;;;35.63;21.42;;;19.70;99.90;;;;;;4914056;29;20048;-58
2023/09/11 03:17:57;;;;;;;38.33;23.75;;;19.60;99.90;;;;;;4909653;29;20052;-57
2023/09/11 03:20:24;;;;;;;35.78;22.85;;;19.60;99.90;;;;;;4911121;29;20488;-58
2023/09/11 03:22:52;;;;;;;36.72;24.05;;;19.60;99.90;;;;;;4910369;29;20044;-58
2023/09/11 03:25:19;;;;;;;38.88;23.58;;;19.50;99.90;;;;;;4910357;29;20055;-60
2023/09/11 03:27:45;;;;;;;39.15;25.23;;;19.60;99.90;;;;;;4904526;29;20124;-55
2023/09/11 03:30:12;;;;;;;36.35;24.13;;;19.60;99.90;;;;;;4900104;29;20052;-60
2023/09/11 03:32:39;;;;;;;36.85;24.02;;;19.50;99.90;;;;;;4899373;29;20044;-58
2023/09/11 03:35:06;;;;;;;42.55;25.75;;;19.50;99.90;;;;;;4887739;29;20059;-58
2023/09/11 03:37:33;;;;;;;40.47;24.35;;;19.50;99.90;;;;;;4909152;29;20056;-58
2023/09/11 03:40:00;;;;;;;37.28;23.10;;;19.50;99.90;;;;;;4906340;29;20057;-59
2023/09/11 03:42:27;;;;;;;33.20;23.50;;;19.60;99.90;;;;;;4908024;29;20056;-57
2023/09/11 03:44:54;;;;;;;37.75;22.42;;;19.70;99.90;;;;;;4903509;29;20044;-57
2023/09/11 03:47:21;;;;;;;30.85;21.90;;;19.80;99.90;;;;;;4903954;29;20104;-61
2023/09/11 03:49:48;;;;;;;36.88;24.30;;;19.80;99.90;;;;;;4911329;29;20072;-57
2023/09/11 03:52:15;;;;;;;36.00;23.27;;;19.90;99.90;;;;;;4905576;29;20059;-57
2023/09/11 03:54:42;;;;;;;38.63;24.83;;;19.90;99.90;;;;;;4908618;29;20036;-58
2023/09/11 03:57:08;;;;;;;41.72;24.38;;;19.90;99.90;;;;;;4909546;29;20509;-59
2023/09/11 03:59:35;;;;;;;33.95;22.50;;;20.00;99.90;;;;;;4890952;29;20469;-55
2023/09/11 04:02:02;;;;;;;33.42;22.30;;;20.00;99.90;;;;;;4910970;29;20075;-56
2023/09/11 04:04:29;;;;;;;37.92;22.92;;;19.90;99.90;;;;;;4907722;29;20048;-59
2023/09/11 04:06:56;;;;;;;38.08;23.17;;;19.90;99.90;;;;;;4912600;29;20131;-59
2023/09/11 04:09:23;;;;;;;32.63;22.77;;;20.00;99.90;;;;;;4905127;29;20059;-58
2023/09/11 04:11:50;;;;;;;42.60;23.05;;;20.00;99.90;;;;;;4907882;29;20056;-59
2023/09/11 04:14:16;;;;;;;31.80;20.75;;;20.00;99.90;;;;;;4904079;29;20456;-57
2023/09/11 04:16:43;;;;;;;38.72;20.80;;;20.00;99.90;;;;;;4902282;29;20052;-60
2023/09/11 04:19:11;;;;;;;30.52;20.83;;;19.90;99.90;;;;;;4901223;29;20053;-57
2023/09/11 04:21:38;;;;;;;29.58;19.88;;;20.00;99.90;;;;;;4903601;29;20308;-58
2023/09/11 04:24:12;;;;;;;28.77;19.85;;;20.10;99.90;;;;;;4901740;29;20052;-59
2023/09/11 04:26:40;;;;;;;29.67;18.92;;;20.10;99.90;;;;;;4908454;29;20052;-57
2023/09/11 04:29:11;;;;;;;31.75;18.60;;;20.00;99.90;;;;;;4911531;29;20088;-58
2023/09/11 04:31:38;;;;;;;23.40;17.75;;;20.10;99.90;;;;;;4892738;29;20107;-58
2023/09/11 04:34:05;;;;;;;29.55;17.33;;;20.10;99.90;;;;;;4890481;29;20045;-58
2023/09/11 04:36:32;;;;;;;24.38;17.23;;;20.00;99.90;;;;;;4904646;29;20052;-58
2023/09/11 04:38:59;;;;;;;20.55;15.68;;;20.10;99.90;;;;;;4903000;29;20045;-58
2023/09/11 04:41:25;;;;;;;20.23;13.48;;;20.10;99.90;;;;;;4909983;29;20060;-58
2023/09/11 04:43:52;;;;;;;21.02;13.45;;;20.00;99.90;;;;;;4906998;29;20055;-59
2023/09/11 04:46:19;;;;;;;22.13;13.73;;;20.00;99.90;;;;;;4909160;29;20113;-58
2023/09/11 04:48:46;;;;;;;20.58;14.20;;;20.00;99.90;;;;;;4906054;29;20592;-58
2023/09/11 04:51:13;;;;;;;20.90;14.68;;;20.00;99.90;;;;;;4907682;29;20051;-58
2023/09/11 04:53:39;;;;;;;24.48;14.00;;;20.10;99.90;;;;;;4904887;29;20043;-59
2023/09/11 04:56:07;;;;;;;22.40;15.43;;;20.10;99.90;;;;;;4903634;29;20053;-56
2023/09/11 04:58:34;;;;;;;23.42;14.77;;;20.10;99.90;;;;;;4904282;29;20045;-58
2023/09/11 05:01:00;;;;;;;28.50;16.27;;;20.10;99.90;;;;;;4898937;29;20068;-60
2023/09/11 05:03:27;;;;;;;25.48;14.18;;;20.00;99.90;;;;;;4899104;29;20057;-58
2023/09/11 05:05:54;;;;;;;19.80;14.23;;;20.10;99.90;;;;;;4910510;29;20059;-58
2023/09/11 05:08:21;;;;;;;22.45;13.80;;;20.10;99.90;;;;;;4899703;29;20049;-58
2023/09/11 05:10:48;;;;;;;20.38;13.20;;;20.00;99.90;;;;;;4907224;29;20080;-58
2023/09/11 05:13:15;;;;;;;21.40;13.00;;;20.00;99.90;;;;;;4909832;29;20397;-58
2023/09/11 05:15:42;;;;;;;18.77;11.93;;;20.00;99.90;;;;;;4902615;29;20499;-58
2023/09/11 05:18:10;;;;;;;20.13;12.13;;;20.00;99.90;;;;;;4891420;29;20048;-60
2023/09/11 05:20:38;;;;;;;18.52;12.30;;;20.10;99.90;;;;;;4906377;29;20052;-61
2023/09/11 05:23:05;;;;;;;19.88;12.38;;;20.10;99.90;;;;;;4904279;29;20040;-59
2023/09/11 05:25:32;;;;;;;22.15;12.50;;;20.10;99.90;;;;;;4910336;29;20111;-60
2023/09/11 05:27:59;;;;;;;19.10;11.93;;;20.10;99.90;;;;;;4895796;29;20052;-57
2023/09/11 05:30:25;;;;;;;17.63;11.15;;;20.20;99.90;;;;;;4911856;29;20048;-59
2023/09/11 05:32:52;;;;;;;19.35;11.40;;;20.20;99.90;;;;;;4907233;29;20090;-58
2023/09/11 05:35:20;;;;;;;19.27;11.10;;;20.30;99.90;;;;;;4901488;29;20040;-60
2023/09/11 05:37:46;;;;;;;16.88;10.75;;;20.30;99.90;;;;;;4898968;29;20091;-58
2023/09/11 05:40:13;;;;;;;16.77;11.15;;;20.30;99.90;;;;;;4909830;29;20063;-57
2023/09/11 05:42:40;;;;;;;17.63;9.95;;;20.40;99.90;;;;;;4904327;29;20147;-59
2023/09/11 05:45:07;;;;;;;14.18;10.35;;;20.40;99.90;;;;;;4904842;29;20049;-57
2023/09/11 05:47:34;;;;;;;18.20;10.75;;;20.40;99.90;;;;;;4910270;29;20464;-57
2023/09/11 05:50:01;;;;;;;18.58;11.75;;;20.30;99.90;;;;;;4883432;29;20048;-59
2023/09/11 05:52:28;;;;;;;16.38;10.20;;;20.30;99.90;;;;;;4906139;29;20064;-58
2023/09/11 05:54:55;;;;;;;14.07;10.43;;;20.30;99.90;;;;;;4906849;29;20115;-59
2023/09/11 05:57:22;;;;;;;21.50;11.75;;;20.40;99.90;;;;;;4910357;29;20044;-59
2023/09/11 05:59:48;;;;;;;19.65;10.98;;;20.40;99.90;;;;;;4889610;29;20082;-59
2023/09/11 06:02:15;;;;;;;23.23;11.15;;;20.40;99.90;;;;;;4904726;29;20049;-59
2023/09/11 06:04:42;;;;;;;18.48;11.32;;;20.30;99.90;;;;;;4904380;29;20504;-59
2023/09/11 06:07:11;;;;;;;19.92;11.27;;;20.30;99.90;;;;;;4907530;29;20056;-59
2023/09/11 06:09:38;;;;;;;16.13;10.20;;;20.40;99.90;;;;;;4907627;29;20051;-60
2023/09/11 06:12:05;;;;;;;14.27;10.55;;;20.40;99.90;;;;;;4910025;29;20053;-60
2023/09/11 06:14:32;;;;;;;16.70;9.20;;;20.40;99.90;;;;;;4905853;29;20051;-59
2023/09/11 06:17:03;;;;;;;22.42;11.15;;;20.40;99.90;;;;;;4911256;29;20094;-59
2023/09/11 06:19:29;;;;;;;16.77;10.65;;;20.40;99.90;;;;;;4904354;29;20134;-59
2023/09/11 06:21:56;;;;;;;16.35;10.23;;;20.40;99.90;;;;;;4910680;29;20055;-59
2023/09/11 06:24:23;;;;;;;17.95;9.60;;;20.30;99.90;;;;;;4905082;29;20044;-60
2023/09/11 06:27:05;;;;;;;12.35;8.80;;;20.40;99.90;;;;;;4907891;29;20068;-59
2023/09/11 06:29:32;;;;;;;17.90;10.38;;;20.30;99.90;;;;;;4894472;29;20452;-57
2023/09/11 06:31:59;;;;;;;17.83;9.95;;;20.30;99.90;;;;;;4907685;29;20499;-58
2023/09/11 06:34:27;;;;;;;16.90;10.43;;;20.30;99.90;;;;;;4901312;29;20444;-54
2023/09/11 06:36:54;;;;;;;17.20;9.27;;;20.30;99.90;;;;;;4902239;29;20060;-55
2023/09/11 06:39:21;;;;;;;13.38;10.02;;;20.30;99.90;;;;;;4900201;29;20048;-57
2023/09/11 06:41:48;;;;;;;14.10;8.48;;;20.40;99.90;;;;;;4906442;29;20048;-59
2023/09/11 06:44:15;;;;;;;19.90;9.85;;;20.40;99.90;;;;;;4908482;29;20139;-57
2023/09/11 06:46:41;;;;;;;17.48;9.38;;;20.50;99.90;;;;;;4907515;29;20084;-58
2023/09/11 06:49:08;;;;;;;15.45;8.55;;;20.60;99.90;;;;;;4901059;29;20071;-61
2023/09/11 06:51:35;;;;;;;13.48;8.95;;;20.60;99.90;;;;;;4905666;29;20111;-57
2023/09/11 06:54:03;;;;;;;12.45;8.98;;;20.70;99.90;;;;;;4892686;29;20053;-57
2023/09/11 06:56:33;;;;;;;19.00;9.07;;;20.60;99.90;;;;;;4891454;29;20063;-55
2023/09/11 06:59:00;;;;;;;11.52;7.88;;;20.70;99.90;;;;;;4903399;29;20052;-71
2023/09/11 07:01:29;;;;;;;13.95;8.65;;;20.70;99.90;;;;;;4898660;29;20135;-57
2023/09/11 07:03:55;;;;;;;13.80;8.77;;;20.70;99.90;;;;;;4893438;29;20118;-58
2023/09/11 07:06:22;;;;;;;14.27;8.35;;;20.80;99.90;;;;;;4901099;29;20048;-58
2023/09/11 07:08:49;;;;;;;13.20;9.10;;;20.90;99.90;;;;;;4906409;29;20083;-57
2023/09/11 07:11:16;;;;;;;11.93;7.10;;;21.00;99.90;;;;;;4881122;29;21421;-55
2023/09/11 07:13:43;;;;;;;16.58;8.10;;;21.10;99.90;;;;;;4899455;29;20048;-55
2023/09/11 07:16:14;;;;;;;14.82;8.10;;;21.10;99.90;;;;;;4903962;29;20048;-54
2023/09/11 07:18:45;;;;;;;13.68;6.85;;;21.10;99.90;;;;;;4898124;29;20133;-57
2023/09/11 07:21:13;;;;;;;11.25;7.22;;;21.20;99.90;;;;;;4885381;29;20062;-57
2023/09/11 07:23:40;;;;;;;11.02;7.68;;;21.20;99.90;;;;;;4905337;29;20058;-57
2023/09/11 07:26:06;;;;;;;16.60;8.18;;;21.20;99.90;;;;;;4902788;29;20523;-57
2023/09/11 07:28:54;;;;;;;12.73;8.23;;;21.30;99.90;;;;;;4901034;29;20060;-57
2023/09/11 07:31:21;;;;;;;11.20;7.65;;;21.30;99.90;;;;;;4896122;29;20484;-53
2023/09/11 07:33:48;;;;;;;15.95;9.05;;;21.30;99.90;;;;;;4908136;29;20052;-57
2023/09/11 07:36:16;;;;;;;16.05;9.82;;;21.20;99.90;;;;;;4904992;29;20083;-58
2023/09/11 07:38:44;;;;;;;14.10;8.55;;;21.20;99.90;;;;;;4909831;29;20048;-57
2023/09/11 07:41:18;;;;;;;13.15;7.22;;;21.20;99.90;;;;;;4906100;29;20139;-55
2023/09/11 07:43:49;;;;;;;13.73;7.45;;;21.20;99.90;;;;;;4908291;29;20077;-55
2023/09/11 07:46:20;;;;;;;13.80;8.07;;;21.20;99.90;;;;;;4905668;29;20052;-56
2023/09/11 07:48:47;;;;;;;14.73;8.77;;;21.30;99.90;;;;;;4909064;29;20079;-54
2023/09/11 07:51:14;;;;;;;19.15;9.35;;;21.30;99.90;;;;;;4904270;29;20044;-56
2023/09/11 07:53:41;;;;;;;15.23;9.52;;;21.30;99.90;;;;;;4884467;29;20053;-57
2023/09/11 07:56:08;;;;;;;13.25;7.90;;;21.20;99.90;;;;;;4900457;29;20568;-56
2023/09/11 07:58:35;;;;;;;10.35;7.45;;;21.10;99.90;;;;;;4897040;29;20097;-57
2023/09/11 08:01:02;;;;;;;15.88;6.95;;;21.20;99.90;;;;;;4890301;29;20056;-57
2023/09/11 08:03:33;;;;;;;13.32;7.30;;;21.20;99.90;;;;;;4907336;29;20056;-56
2023/09/11 08:06:00;;;;;;;12.38;7.13;;;21.20;99.90;;;;;;4905283;29;20052;-57
2023/09/11 08:08:27;;;;;;;13.50;7.53;;;21.20;99.90;;;;;;4909519;29;20059;-54
2023/09/11 08:10:54;;;;;;;11.93;6.38;;;21.20;99.90;;;;;;4906428;29;20056;-56
2023/09/11 08:13:24;;;;;;;21.20;7.95;;;21.10;99.90;;;;;;4898755;29;20524;-57
2023/09/11 08:15:51;;;;;;;11.70;7.97;;;21.20;99.90;;;;;;4908309;29;20059;-55
2023/09/11 08:18:18;;;;;;;13.75;6.00;;;21.20;99.90;;;;;;4904162;29;20044;-56
2023/09/11 08:20:49;;;;;;;9.20;7.03;;;21.40;99.90;;;;;;4904937;29;20487;-58
2023/09/11 08:23:16;;;;;;;12.63;7.13;;;21.40;99.90;;;;;;4906538;29;20493;-57
2023/09/11 08:25:43;;;;;;;14.20;6.82;;;21.50;99.90;;;;;;4900211;29;20048;-57
2023/09/11 08:28:10;;;;;;;16.40;8.07;;;21.50;99.90;;;;;;4887718;29;20071;-55
2023/09/11 08:30:37;;;;;;;17.48;8.27;;;21.60;99.90;;;;;;4905993;29;20096;-55
2023/09/11 08:33:07;;;;;;;14.75;8.32;;;21.60;99.90;;;;;;4900934;29;20056;-56
2023/09/11 08:35:34;;;;;;;14.02;7.70;;;21.60;99.90;;;;;;4874272;29;20056;-56
2023/09/11 08:38:01;;;;;;;16.67;9.23;;;21.60;99.90;;;;;;4903602;29;20135;-57
2023/09/11 08:40:30;;;;;;;15.93;9.32;;;21.80;99.90;;;;;;4903093;29;20119;-57
2023/09/11 08:42:58;;;;;;;12.27;8.65;;;21.80;99.90;;;;;;4901839;29;20081;-57
2023/09/11 08:45:28;;;;;;;16.55;8.23;;;21.70;99.90;;;;;;4901705;29;20075;-58
2023/09/11 08:47:55;;;;;;;13.95;8.98;;;21.60;99.90;;;;;;4907321;29;20044;-59
2023/09/11 08:50:27;;;;;;;12.48;8.68;;;21.60;99.90;;;;;;4887323;29;20131;-56
2023/09/11 08:52:54;;;;;;;19.88;10.57;;;21.70;99.90;;;;;;4884016;29;20103;-56
2023/09/11 08:55:23;;;;;;;14.77;9.35;;;21.80;99.90;;;;;;4908567;29;20052;-55
2023/09/11 08:57:50;;;;;;;19.67;9.73;;;21.90;99.90;;;;;;4906237;29;20127;-58
2023/09/11 09:00:17;;;;;;;15.20;8.35;;;21.90;99.90;;;;;;4910280;29;20393;-57
2023/09/11 09:02:44;;;;;;;14.35;9.68;;;22.00;99.90;;;;;;4878283;29;20048;-59
2023/09/11 09:05:11;;;;;;;19.52;10.40;;;22.10;99.90;;;;;;4900803;29;20456;-55
2023/09/11 09:07:38;;;;;;;14.32;10.27;;;21.90;99.90;;;;;;4897717;29;20314;-57
2023/09/11 09:10:05;;;;;;;21.77;8.48;;;21.70;99.90;;;;;;4907902;29;20054;-57
2023/09/11 09:12:33;;;;;;;22.40;9.13;;;21.60;99.90;;;;;;4875291;29;20508;-55
2023/09/11 09:15:00;;;;;;;16.27;8.70;;;21.60;99.90;;;;;;4893279;29;20060;-57
2023/09/11 09:17:26;;;;;;;13.38;8.07;;;21.70;99.90;;;;;;4878825;29;20044;-57
2023/09/11 09:19:53;;;;;;;14.95;8.75;;;21.60;99.90;;;;;;4890125;29;20169;-57
2023/09/11 09:22:20;;;;;;;13.50;6.55;;;21.50;99.90;;;;;;4908618;29;20052;-58
2023/09/11 09:24:54;;;;;;;11.95;7.38;;;21.50;99.90;;;;;;4902820;29;20040;-56
2023/09/11 09:27:24;;;;;;;11.43;6.00;;;21.50;99.90;;;;;;4907952;29;20087;-60
2023/09/11 09:29:51;;;;;;;12.13;5.38;;;21.70;99.90;;;;;;4906095;29;20544;-59
2023/09/11 09:32:18;;;;;;;10.55;5.05;;;21.60;99.90;;;;;;4908254;29;20513;-58
2023/09/11 09:34:53;;;;;;;9.25;4.28;;;21.80;99.90;;;;;;4903702;29;20048;-58
2023/09/11 09:37:20;;;;;;;9.73;4.25;;;21.70;99.90;;;;;;4898903;29;20053;-57
2023/09/11 09:39:48;;;;;;;7.70;3.40;;;21.80;99.90;;;;;;4901992;29;20436;-57
2023/09/11 09:42:15;;;;;;;9.05;4.75;;;21.90;99.90;;;;;;4908055;29;20052;-57
2023/09/11 09:44:45;;;;;;;14.35;4.30;;;21.90;99.90;;;;;;4900420;29;20072;-58
2023/09/11 09:47:19;;;;;;;8.70;4.28;;;22.20;99.90;;;;;;4910836;29;20059;-58
2023/09/11 09:49:56;;;;;;;18.70;4.70;;;22.20;99.90;;;;;;4907033;29;20048;-58
2023/09/11 09:52:29;;;;;;;5.22;3.65;;;22.50;99.90;;;;;;4910570;29;20047;-57
2023/09/11 09:55:02;;;;;;;7.78;3.92;;;22.70;99.90;;;;;;4900687;29;20044;-58
2023/09/11 09:57:28;;;;;;;5.35;3.72;;;22.40;99.90;;;;;;4907585;29;20123;-58
2023/09/11 09:59:57;;;;;;;7.05;4.20;;;22.30;99.90;;;;;;4910583;29;20051;-58
2023/09/11 10:02:29;;;;;;;13.43;3.92;;;22.30;99.90;;;;;;4904479;29;20511;-58
2023/09/11 10:04:57;;;;;;;13.70;3.42;;;22.30;99.90;;;;;;4905772;29;20087;-57
2023/09/11 10:07:41;;;;;;;6.78;2.90;;;22.30;99.90;;;;;;4902651;29;20052;-57
2023/09/11 10:10:21;;;;;;;6.07;2.95;;;22.40;99.90;;;;;;4896425;29;20451;-57
2023/09/11 10:13:12;;;;;;;16.40;3.35;;;22.40;99.90;;;;;;4885075;29;20411;-57
2023/09/11 10:15:40;;;;;;;6.63;3.22;;;22.50;99.90;;;;;;4891437;29;20374;-58
2023/09/11 10:18:09;;;;;;;6.18;3.20;;;22.50;99.90;;;;;;4907882;29;20052;-59
2023/09/11 10:20:36;;;;;;;7.22;2.80;;;22.50;99.90;;;;;;4907400;29;20076;-57
2023/09/11 10:23:04;;;;;;;5.90;2.97;;;22.60;99.90;;;;;;4890957;29;20131;-58
2023/09/11 10:25:38;;;;;;;5.43;2.42;;;22.60;99.90;;;;;;4887221;29;20056;-59
2023/09/11 10:28:08;;;;;;;;;;;22.50;99.90;;;;;;4912478;29;20064;-56
2023/09/11 10:31:01;;;;;;;8.35;2.72;;;22.50;99.90;;;;;;4902025;29;19924;-57
2023/09/11 10:33:34;;;;;;;5.28;2.55;;;22.50;99.90;;;;;;4897223;29;20080;-57
2023/09/11 10:36:04;;;;;;;5.88;2.28;;;22.50;99.90;;;;;;4903220;29;20127;-58
2023/09/11 10:38:31;;;;;;;6.22;2.75;;;22.60;99.90;;;;;;4886336;29;20057;-57
2023/09/11 10:40:59;;;;;;;7.97;3.22;;;22.60;99.90;;;;;;4875378;29;20100;-58
2023/09/11 10:43:26;;;;;;;6.78;2.70;;;22.70;99.90;;;;;;4890320;29;20048;-58
2023/09/11 10:45:54;;;;;;;4.95;2.58;;;22.80;99.90;;;;;;4902444;29;20493;-57
2023/09/11 10:48:30;;;;;;;3.85;2.25;;;23.00;99.90;;;;;;4908475;29;20128;-58
2023/09/11 10:50:58;;;;;;;5.18;3.03;;;23.00;99.90;;;;;;4909370;29;20048;-58
2023/09/11 10:53:27;;;;;;;8.57;2.60;;;23.00;99.90;;;;;;4888354;29;20053;-58
2023/09/11 10:55:55;;;;;;;6.90;2.10;;;23.00;99.90;;;;;;4892400;29;20048;-57
2023/09/11 10:58:22;;;;;;;9.45;2.17;;;23.20;99.90;;;;;;4906181;29;20051;-55
2023/09/11 11:00:53;;;;;;;8.35;2.45;;;23.40;99.90;;;;;;4910971;29;20469;-55
2023/09/11 11:03:21;;;;;;;5.90;2.45;;;23.50;99.90;;;;;;4892074;29;20496;-57
2023/09/11 11:05:48;;;;;;;6.35;2.47;;;23.70;99.90;;;;;;4910206;29;20048;-58
2023/09/11 11:08:15;;;;;;;7.07;2.30;;;23.80;99.90;;;;;;4905202;29;20056;-57
2023/09/11 11:10:42;;;;;;;4.40;2.60;;;24.00;99.90;;;;;;4903795;29;20053;-58
2023/09/11 11:13:11;;;;;;;3.55;2.20;;;24.00;99.90;;;;;;4908126;29;20056;-57
2023/09/11 11:15:37;;;;;;;4.35;2.17;;;23.90;99.90;;;;;;4879651;29;20045;-57
2023/09/11 11:18:25;;;;;;;5.30;1.90;;;24.00;99.90;;;;;;4916641;29;20087;-57
2023/09/11 11:21:05;;;;;;;6.80;2.80;;;24.00;99.90;;;;;;4906179;29;20072;-58
2023/09/11 11:23:33;;;;;;;4.50;2.10;;;24.00;99.90;;;;;;4903482;29;20056;-58
2023/09/11 11:26:04;;;;;;;2.13;1.42;;;24.10;99.90;;;;;;4913549;29;20056;-58
2023/09/11 11:28:39;;;;;;;3.47;1.50;;;24.30;99.90;;;;;;4891979;29;20125;-56
2023/09/11 11:31:13;;;;;;;4.05;2.38;;;24.30;99.90;;;;;;4889746;29;20135;-59
2023/09/11 11:33:40;;;;;;;3.38;1.80;;;24.40;99.90;;;;;;4889489;29;20059;-58
2023/09/11 11:36:07;;;;;;;3.88;1.60;;;24.30;99.90;;;;;;4864126;29;20135;-57
2023/09/11 11:38:35;;;;;;;4.30;1.85;;;24.30;99.90;;;;;;4892327;29;20059;-56
2023/09/11 11:41:07;;;;;;;3.38;1.85;;;24.40;99.90;;;;;;4877474;29;20045;-57
2023/09/11 11:43:34;;;;;;;9.10;2.15;;;24.50;99.90;;;;;;4867163;29;20524;-57
2023/09/11 11:46:01;;;;;;;5.47;1.83;;;24.60;99.90;;;;;;4873310;29;20061;-57
2023/09/11 11:48:27;;;;;;;3.78;1.83;;;24.70;99.90;;;;;;4891527;29;20041;-57
2023/09/11 11:50:55;;;;;;;5.00;2.22;;;24.80;99.90;;;;;;4890555;29;20080;-57
2023/09/11 11:53:23;;;;;;;3.83;1.90;;;24.80;99.90;;;;;;4890838;29;20052;-57
2023/09/11 11:55:51;;;;;;;5.15;2.28;;;24.90;99.90;;;;;;4888484;29;20570;-58
2023/09/11 11:58:17;;;;;;;3.65;1.85;;;25.00;99.90;;;;;;4878261;29;20108;-58
2023/09/11 12:01:04;;;;;;;15.00;2.05;;;25.00;99.90;;;;;;4873617;29;20136;-59
2023/09/11 12:03:45;;;;;;;4.45;1.95;;;25.00;99.90;;;;;;4884544;29;20135;-56
2023/09/11 12:06:12;;;;;;;3.47;1.52;;;25.00;99.90;;;;;;4889842;29;20135;-58
2023/09/11 12:08:40;;;;;;;6.00;2.10;;;25.10;99.90;;;;;;4877734;29;20063;-59
2023/09/11 12:11:07;;;;;;;4.53;1.95;;;25.20;99.90;;;;;;4890400;29;20095;-58
2023/09/11 12:13:34;;;;;;;6.25;2.20;;;25.40;99.90;;;;;;4893349;29;20089;-59
2023/09/11 12:16:15;;;;;;;4.10;1.58;;;25.50;99.90;;;;;;4890234;29;20076;-59
2023/09/11 12:18:42;;;;;;;2.60;1.33;;;25.60;99.90;;;;;;4894196;29;20076;-59
2023/09/11 12:21:10;;;;;;;5.72;2.05;;;25.60;99.90;;;;;;4891661;29;20048;-58
2023/09/11 12:23:36;;;;;;;4.43;1.50;;;25.70;99.90;;;;;;4891065;29;20048;-57
2023/09/11 12:26:03;;;;;;;3.92;1.50;;;25.70;99.90;;;;;;4890179;29;20131;-58
2023/09/11 12:28:31;;;;;;;4.30;1.70;;;25.60;99.90;;;;;;4902545;29;20060;-58
2023/09/11 12:30:57;;;;;;;4.78;1.73;;;25.60;99.90;;;;;;4548610;29;10000460;-57
2023/09/11 12:33:33;;;;;;;3.45;1.23;;;25.60;99.90;;;;;;4906063;29;20499;-58
2023/09/11 12:36:01;;;;;;;3.63;1.77;;;25.80;99.90;;;;;;4904428;29;20415;-57
2023/09/11 12:38:29;;;;;;;4.30;1.55;;;25.80;99.90;;;;;;4895109;29;20310;-59